sensor_id;sensor_type;location;lat;lon;timestamp;pressure;altitude;pressure_sealevel;temperature;humidity
40372;BME280;28564;53.346;-6.554;2023-04-01T00:01:42;99490.32;;;12.37;60.28
40372;BME280;28564;53.346;-6.554;2023-04-01T00:04:09;99490.18;;;12.33;60.44
40372;BME280;28564;53.346;-6.554;2023-04-01T00:06:37;99494.38;;;12.34;60.30
40372;BME280;28564;53.346;-6.554;2023-04-01T00:09:04;99498.72;;;12.34;60.27
40372;BME280;28564;53.346;-6.554;2023-04-01T00:11:32;99503.46;;;12.32;60.37
40372;BME280;28564;53.346;-6.554;2023-04-01T00:13:59;99505.14;;;12.15;60.14
40372;BME280;28564;53.346;-6.554;2023-04-01T00:16:27;99505.13;;;11.85;60.19
40372;BME280;28564;53.346;-6.554;2023-04-01T00:18:54;99504.36;;;12.31;60.36
40372;BME280;28564;53.346;-6.554;2023-04-01T00:21:21;99507.87;;;12.28;60.57
40372;BME280;28564;53.346;-6.554;2023-04-01T00:23:50;99506.56;;;12.30;60.52
40372;BME280;28564;53.346;-6.554;2023-04-01T00:26:18;99507.43;;;12.30;60.37
40372;BME280;28564;53.346;-6.554;2023-04-01T00:28:45;99510.04;;;12.08;60.49
40372;BME280;28564;53.346;-6.554;2023-04-01T00:31:13;99507.76;;;12.08;60.49
40372;BME280;28564;53.346;-6.554;2023-04-01T00:33:41;99511.59;;;12.32;60.41
40372;BME280;28564;53.346;-6.554;2023-04-01T00:36:09;99512.63;;;12.32;60.39
40372;BME280;28564;53.346;-6.554;2023-04-01T00:38:37;99512.25;;;12.08;60.50
40372;BME280;28564;53.346;-6.554;2023-04-01T00:41:05;99513.67;;;12.06;60.69
40372;BME280;28564;53.346;-6.554;2023-04-01T00:43:33;99516.36;;;11.84;60.47
40372;BME280;28564;53.346;-6.554;2023-04-01T00:46:01;99514.72;;;12.31;60.31
40372;BME280;28564;53.346;-6.554;2023-04-01T00:48:31;99514.42;;;12.30;60.56
40372;BME280;28564;53.346;-6.554;2023-04-01T00:51:02;99515.53;;;12.32;60.52
40372;BME280;28564;53.346;-6.554;2023-04-01T00:53:33;99517.61;;;12.31;60.34
40372;BME280;28564;53.346;-6.554;2023-04-01T00:56:04;99519.00;;;12.28;60.52
40372;BME280;28564;53.346;-6.554;2023-04-01T00:58:37;99519.27;;;11.78;60.65
40372;BME280;28564;53.346;-6.554;2023-04-01T01:01:06;99522.13;;;12.06;60.65
40372;BME280;28564;53.346;-6.554;2023-04-01T01:03:35;99523.18;;;12.31;60.39
40372;BME280;28564;53.346;-6.554;2023-04-01T01:06:10;99523.13;;;12.30;60.47
40372;BME280;28564;53.346;-6.554;2023-04-01T01:08:51;99521.94;;;11.78;60.56
40372;BME280;28564;53.346;-6.554;2023-04-01T01:11:25;99521.01;;;12.09;60.38
40372;BME280;28564;53.346;-6.554;2023-04-01T01:14:00;99522.11;;;11.78;60.59
40372;BME280;28564;53.346;-6.554;2023-04-01T01:16:31;99520.65;;;12.29;60.31
40372;BME280;28564;53.346;-6.554;2023-04-01T01:19:07;99516.60;;;11.77;60.42
40372;BME280;28564;53.346;-6.554;2023-04-01T01:21:51;99520.33;;;12.00;60.45
40372;BME280;28564;53.346;-6.554;2023-04-01T01:24:35;99523.25;;;12.21;60.52
40372;BME280;28564;53.346;-6.554;2023-04-01T01:27:09;99525.12;;;12.21;60.48
40372;BME280;28564;53.346;-6.554;2023-04-01T01:29:45;99524.38;;;11.97;60.73
40372;BME280;28564;53.346;-6.554;2023-04-01T01:32:25;99527.71;;;11.72;60.71
40372;BME280;28564;53.346;-6.554;2023-04-01T01:35:10;99529.39;;;12.22;60.78
40372;BME280;28564;53.346;-6.554;2023-04-01T01:37:42;99533.95;;;12.22;60.61
40372;BME280;28564;53.346;-6.554;2023-04-01T01:40:11;99537.05;;;12.02;60.69
40372;BME280;28564;53.346;-6.554;2023-04-01T01:42:43;99536.65;;;12.03;60.64
40372;BME280;28564;53.346;-6.554;2023-04-01T01:45:13;99536.69;;;12.24;60.56
40372;BME280;28564;53.346;-6.554;2023-04-01T01:47:43;99536.91;;;12.01;60.65
40372;BME280;28564;53.346;-6.554;2023-04-01T01:50:11;99538.76;;;12.00;60.72
40372;BME280;28564;53.346;-6.554;2023-04-01T01:52:39;99538.00;;;12.22;60.70
40372;BME280;28564;53.346;-6.554;2023-04-01T01:55:25;99538.35;;;11.98;60.78
40372;BME280;28564;53.346;-6.554;2023-04-01T01:57:55;99538.05;;;12.18;61.07
40372;BME280;28564;53.346;-6.554;2023-04-01T02:00:26;99542.31;;;12.22;60.87
40372;BME280;28564;53.346;-6.554;2023-04-01T02:02:54;99543.83;;;12.24;60.64
40372;BME280;28564;53.346;-6.554;2023-04-01T02:05:26;99543.09;;;12.18;60.67
40372;BME280;28564;53.346;-6.554;2023-04-01T02:08:00;99548.38;;;12.19;60.61
40372;BME280;28564;53.346;-6.554;2023-04-01T02:10:29;99550.79;;;11.98;60.58
40372;BME280;28564;53.346;-6.554;2023-04-01T02:13:02;99552.85;;;12.19;60.61
40372;BME280;28564;53.346;-6.554;2023-04-01T02:15:37;99556.77;;;12.15;60.84
40372;BME280;28564;53.346;-6.554;2023-04-01T02:18:05;99557.33;;;11.63;61.17
40372;BME280;28564;53.346;-6.554;2023-04-01T02:20:32;99561.11;;;11.93;61.15
40372;BME280;28564;53.346;-6.554;2023-04-01T02:23:02;99563.64;;;11.67;60.96
40372;BME280;28564;53.346;-6.554;2023-04-01T02:25:34;99562.13;;;11.95;60.97
40372;BME280;28564;53.346;-6.554;2023-04-01T02:28:02;99568.19;;;12.20;60.94
40372;BME280;28564;53.346;-6.554;2023-04-01T02:30:33;99568.40;;;12.18;60.96
40372;BME280;28564;53.346;-6.554;2023-04-01T02:33:03;99568.89;;;12.19;60.95
40372;BME280;28564;53.346;-6.554;2023-04-01T02:35:33;99570.23;;;12.21;60.99
40372;BME280;28564;53.346;-6.554;2023-04-01T02:38:01;99573.01;;;11.74;60.98
40372;BME280;28564;53.346;-6.554;2023-04-01T02:40:39;99572.74;;;12.24;60.97
40372;BME280;28564;53.346;-6.554;2023-04-01T02:43:07;99573.34;;;12.02;60.87
40372;BME280;28564;53.346;-6.554;2023-04-01T02:45:34;99573.13;;;12.25;60.71
40372;BME280;28564;53.346;-6.554;2023-04-01T02:48:02;99577.14;;;12.23;60.83
40372;BME280;28564;53.346;-6.554;2023-04-01T02:50:29;99576.56;;;12.24;60.70
40372;BME280;28564;53.346;-6.554;2023-04-01T02:52:56;99577.86;;;12.21;60.85
40372;BME280;28564;53.346;-6.554;2023-04-01T02:55:23;99579.45;;;11.97;60.99
40372;BME280;28564;53.346;-6.554;2023-04-01T02:57:50;99583.13;;;12.18;61.03
40372;BME280;28564;53.346;-6.554;2023-04-01T03:00:18;99580.87;;;11.95;60.96
40372;BME280;28564;53.346;-6.554;2023-04-01T03:02:45;99583.64;;;11.95;60.89
40372;BME280;28564;53.346;-6.554;2023-04-01T03:05:12;99587.82;;;12.19;60.69
40372;BME280;28564;53.346;-6.554;2023-04-01T03:07:39;99591.15;;;12.15;60.80
40372;BME280;28564;53.346;-6.554;2023-04-01T03:10:08;99590.84;;;12.12;61.03
40372;BME280;28564;53.346;-6.554;2023-04-01T03:12:35;99596.23;;;12.15;60.99
40372;BME280;28564;53.346;-6.554;2023-04-01T03:15:03;99594.15;;;11.94;60.72
40372;BME280;28564;53.346;-6.554;2023-04-01T03:17:30;99598.99;;;11.92;60.67
40372;BME280;28564;53.346;-6.554;2023-04-01T03:19:57;99599.28;;;12.11;60.67
40372;BME280;28564;53.346;-6.554;2023-04-01T03:22:24;99603.61;;;12.10;60.72
40372;BME280;28564;53.346;-6.554;2023-04-01T03:24:52;99607.33;;;11.57;60.91
40372;BME280;28564;53.346;-6.554;2023-04-01T03:27:19;99605.95;;;12.05;60.82
40372;BME280;28564;53.346;-6.554;2023-04-01T03:29:47;99607.65;;;11.83;60.87
40372;BME280;28564;53.346;-6.554;2023-04-01T03:32:14;99610.45;;;12.07;60.69
40372;BME280;28564;53.346;-6.554;2023-04-01T03:34:41;99618.29;;;12.07;60.64
40372;BME280;28564;53.346;-6.554;2023-04-01T03:37:08;99623.38;;;12.03;60.75
40372;BME280;28564;53.346;-6.554;2023-04-01T03:39:35;99625.23;;;12.02;60.96
40372;BME280;28564;53.346;-6.554;2023-04-01T03:42:03;99624.17;;;12.05;60.78
40372;BME280;28564;53.346;-6.554;2023-04-01T03:44:31;99627.31;;;11.82;60.68
40372;BME280;28564;53.346;-6.554;2023-04-01T03:46:58;99628.96;;;12.01;60.81
40372;BME280;28564;53.346;-6.554;2023-04-01T03:49:25;99626.98;;;11.77;60.83
40372;BME280;28564;53.346;-6.554;2023-04-01T03:51:52;99630.61;;;11.98;61.01
40372;BME280;28564;53.346;-6.554;2023-04-01T03:54:20;99633.84;;;11.78;60.97
40372;BME280;28564;53.346;-6.554;2023-04-01T03:56:48;99632.38;;;11.47;60.92
40372;BME280;28564;53.346;-6.554;2023-04-01T03:59:15;99633.24;;;11.99;60.67
40372;BME280;28564;53.346;-6.554;2023-04-01T04:01:42;99637.10;;;11.95;60.96
40372;BME280;28564;53.346;-6.554;2023-04-01T04:04:11;99640.13;;;11.95;60.91
40372;BME280;28564;53.346;-6.554;2023-04-01T04:06:38;99639.09;;;11.70;61.10
40372;BME280;28564;53.346;-6.554;2023-04-01T04:09:06;99642.64;;;11.94;60.94
40372;BME280;28564;53.346;-6.554;2023-04-01T04:11:33;99646.36;;;11.93;61.02
40372;BME280;28564;53.346;-6.554;2023-04-01T04:14:00;99649.07;;;11.94;60.90
40372;BME280;28564;53.346;-6.554;2023-04-01T04:16:27;99650.85;;;11.92;60.98
40372;BME280;28564;53.346;-6.554;2023-04-01T04:18:54;99650.92;;;11.94;60.86
40372;BME280;28564;53.346;-6.554;2023-04-01T04:21:22;99651.66;;;11.92;60.87
40372;BME280;28564;53.346;-6.554;2023-04-01T04:23:50;99653.22;;;11.90;60.91
40372;BME280;28564;53.346;-6.554;2023-04-01T04:26:17;99653.87;;;11.87;60.88
40372;BME280;28564;53.346;-6.554;2023-04-01T04:28:44;99654.31;;;11.85;60.93
40372;BME280;28564;53.346;-6.554;2023-04-01T04:31:11;99655.69;;;11.63;61.14
40372;BME280;28564;53.346;-6.554;2023-04-01T04:33:38;99655.66;;;11.84;60.98
40372;BME280;28564;53.346;-6.554;2023-04-01T04:36:06;99661.47;;;11.62;60.97
40372;BME280;28564;53.346;-6.554;2023-04-01T04:38:34;99668.12;;;11.82;60.96
40372;BME280;28564;53.346;-6.554;2023-04-01T04:41:01;99674.26;;;11.82;61.23
40372;BME280;28564;53.346;-6.554;2023-04-01T04:43:28;99676.37;;;11.86;61.40
40372;BME280;28564;53.346;-6.554;2023-04-01T04:45:55;99681.62;;;11.67;61.00
40372;BME280;28564;53.346;-6.554;2023-04-01T04:48:22;99683.65;;;11.87;60.87
40372;BME280;28564;53.346;-6.554;2023-04-01T04:50:50;99689.01;;;11.89;60.99
40372;BME280;28564;53.346;-6.554;2023-04-01T04:53:19;99692.38;;;11.89;60.92
40372;BME280;28564;53.346;-6.554;2023-04-01T04:55:47;99697.69;;;11.91;61.09
40372;BME280;28564;53.346;-6.554;2023-04-01T04:58:15;99700.05;;;11.92;60.84
40372;BME280;28564;53.346;-6.554;2023-04-01T05:00:43;99701.05;;;11.89;61.04
40372;BME280;28564;53.346;-6.554;2023-04-01T05:03:11;99703.11;;;11.89;61.02
40372;BME280;28564;53.346;-6.554;2023-04-01T05:05:39;99707.49;;;11.89;60.79
40372;BME280;28564;53.346;-6.554;2023-04-01T05:08:06;99710.61;;;11.90;61.08
40372;BME280;28564;53.346;-6.554;2023-04-01T05:10:34;99713.79;;;11.92;61.09
40372;BME280;28564;53.346;-6.554;2023-04-01T05:13:01;99717.65;;;11.70;60.91
40372;BME280;28564;53.346;-6.554;2023-04-01T05:15:29;99717.36;;;11.69;60.75
40372;BME280;28564;53.346;-6.554;2023-04-01T05:17:56;99722.79;;;11.87;60.94
40372;BME280;28564;53.346;-6.554;2023-04-01T05:20:23;99723.95;;;11.88;60.96
40372;BME280;28564;53.346;-6.554;2023-04-01T05:22:55;99726.12;;;11.90;60.95
40372;BME280;28564;53.346;-6.554;2023-04-01T05:25:23;99731.45;;;11.92;60.90
40372;BME280;28564;53.346;-6.554;2023-04-01T05:27:50;99735.77;;;11.94;60.95
40372;BME280;28564;53.346;-6.554;2023-04-01T05:30:17;99739.63;;;11.94;60.69
40372;BME280;28564;53.346;-6.554;2023-04-01T05:32:44;99740.79;;;11.91;60.97
40372;BME280;28564;53.346;-6.554;2023-04-01T05:35:12;99746.27;;;11.91;61.11
40372;BME280;28564;53.346;-6.554;2023-04-01T05:37:39;99752.08;;;11.95;61.28
40372;BME280;28564;53.346;-6.554;2023-04-01T05:40:07;99757.51;;;11.98;61.29
40372;BME280;28564;53.346;-6.554;2023-04-01T05:42:34;99759.99;;;12.02;61.15
40372;BME280;28564;53.346;-6.554;2023-04-01T05:45:01;99761.11;;;11.54;60.71
40372;BME280;28564;53.346;-6.554;2023-04-01T05:47:29;99763.79;;;12.00;60.96
40372;BME280;28564;53.346;-6.554;2023-04-01T05:49:56;99765.98;;;11.51;60.95
40372;BME280;28564;53.346;-6.554;2023-04-01T05:52:24;99771.35;;;12.03;60.81
40372;BME280;28564;53.346;-6.554;2023-04-01T05:54:51;99774.47;;;12.02;60.69
40372;BME280;28564;53.346;-6.554;2023-04-01T05:57:18;99780.26;;;12.00;60.70
40372;BME280;28564;53.346;-6.554;2023-04-01T05:59:45;99782.81;;;11.77;60.78
40372;BME280;28564;53.346;-6.554;2023-04-01T06:02:13;99784.79;;;11.96;61.03
40372;BME280;28564;53.346;-6.554;2023-04-01T06:04:43;99791.82;;;11.77;61.06
40372;BME280;28564;53.346;-6.554;2023-04-01T06:07:12;99794.33;;;11.97;60.97
40372;BME280;28564;53.346;-6.554;2023-04-01T06:09:40;99797.83;;;11.97;60.80
40372;BME280;28564;53.346;-6.554;2023-04-01T06:12:31;99801.32;;;11.75;60.96
40372;BME280;28564;53.346;-6.554;2023-04-01T06:15:11;99803.99;;;11.50;60.81
40372;BME280;28564;53.346;-6.554;2023-04-01T06:17:51;99807.62;;;11.78;60.74
40372;BME280;28564;53.346;-6.554;2023-04-01T06:20:26;99811.69;;;12.01;60.92
40372;BME280;28564;53.346;-6.554;2023-04-01T06:23:09;99815.98;;;11.54;60.69
40372;BME280;28564;53.346;-6.554;2023-04-01T06:25:45;99818.48;;;11.82;60.62
40372;BME280;28564;53.346;-6.554;2023-04-01T06:28:38;99822.85;;;11.54;60.32
40372;BME280;28564;53.346;-6.554;2023-04-01T06:31:18;99827.87;;;12.02;60.57
40372;BME280;28564;53.346;-6.554;2023-04-01T06:34:00;99835.54;;;11.56;60.70
40372;BME280;28564;53.346;-6.554;2023-04-01T06:36:42;99840.52;;;11.86;60.27
40372;BME280;28564;53.346;-6.554;2023-04-01T06:39:25;99850.27;;;12.09;60.60
40372;BME280;28564;53.346;-6.554;2023-04-01T06:42:11;99850.33;;;11.61;60.63
40372;BME280;28564;53.346;-6.554;2023-04-01T06:44:47;99855.39;;;11.94;60.60
40372;BME280;28564;53.346;-6.554;2023-04-01T06:47:28;99867.88;;;12.19;60.48
40372;BME280;28564;53.346;-6.554;2023-04-01T06:50:03;99875.58;;;11.98;60.30
40372;BME280;28564;53.346;-6.554;2023-04-01T06:52:41;99877.66;;;12.22;60.08
40372;BME280;28564;53.346;-6.554;2023-04-01T06:55:23;99885.79;;;11.74;59.98
40372;BME280;28564;53.346;-6.554;2023-04-01T06:57:55;99888.81;;;11.74;60.32
40372;BME280;28564;53.346;-6.554;2023-04-01T07:00:28;99893.05;;;12.04;60.52
40372;BME280;28564;53.346;-6.554;2023-04-01T07:03:04;99896.38;;;11.81;60.36
40372;BME280;28564;53.346;-6.554;2023-04-01T07:05:34;99903.33;;;12.32;60.28
40372;BME280;28564;53.346;-6.554;2023-04-01T07:08:03;99906.44;;;12.33;60.16
40372;BME280;28564;53.346;-6.554;2023-04-01T07:10:35;99913.68;;;12.33;60.35
40372;BME280;28564;53.346;-6.554;2023-04-01T07:13:09;99918.58;;;12.33;60.06
40372;BME280;28564;53.346;-6.554;2023-04-01T07:15:40;99922.60;;;12.15;59.84
40372;BME280;28564;53.346;-6.554;2023-04-01T07:18:12;99926.02;;;11.85;59.90
40372;BME280;28564;53.346;-6.554;2023-04-01T07:20:42;99928.21;;;12.09;59.96
40372;BME280;28564;53.346;-6.554;2023-04-01T07:23:17;99936.92;;;12.32;59.99
40372;BME280;28564;53.346;-6.554;2023-04-01T07:25:52;99938.93;;;12.30;60.07
40372;BME280;28564;53.346;-6.554;2023-04-01T07:28:20;99945.50;;;11.85;60.33
40372;BME280;28564;53.346;-6.554;2023-04-01T07:30:57;99951.62;;;12.39;60.27
40372;BME280;28564;53.346;-6.554;2023-04-01T07:33:33;99957.51;;;11.96;60.26
40372;BME280;28564;53.346;-6.554;2023-04-01T07:36:10;99965.86;;;12.47;60.06
40372;BME280;28564;53.346;-6.554;2023-04-01T07:38:48;99972.16;;;12.02;60.21
40372;BME280;28564;53.346;-6.554;2023-04-01T07:41:26;99977.61;;;12.10;60.37
40372;BME280;28564;53.346;-6.554;2023-04-01T07:44:03;99985.90;;;12.21;60.36
40372;BME280;28564;53.346;-6.554;2023-04-01T07:46:46;99991.09;;;12.24;59.99
40372;BME280;28564;53.346;-6.554;2023-04-01T07:49:22;99995.65;;;12.28;59.86
40372;BME280;28564;53.346;-6.554;2023-04-01T07:51:58;99997.06;;;12.31;59.59
40372;BME280;28564;53.346;-6.554;2023-04-01T07:54:34;100004.88;;;12.39;59.66
40372;BME280;28564;53.346;-6.554;2023-04-01T07:57:10;100009.77;;;12.49;59.77
40372;BME280;28564;53.346;-6.554;2023-04-01T07:59:46;100014.04;;;12.63;59.84
40372;BME280;28564;53.346;-6.554;2023-04-01T08:02:29;100021.57;;;12.84;59.95
40372;BME280;28564;53.346;-6.554;2023-04-01T08:05:06;100027.04;;;12.81;59.63
40372;BME280;28564;53.346;-6.554;2023-04-01T08:07:40;100033.56;;;13.18;59.16
40372;BME280;28564;53.346;-6.554;2023-04-01T08:10:14;100041.73;;;13.09;59.19
40372;BME280;28564;53.346;-6.554;2023-04-01T08:12:52;100044.49;;;13.44;58.92
40372;BME280;28564;53.346;-6.554;2023-04-01T08:15:27;100048.21;;;13.09;58.43
40372;BME280;28564;53.346;-6.554;2023-04-01T08:18:05;100052.81;;;13.15;58.43
40372;BME280;28564;53.346;-6.554;2023-04-01T08:20:39;100058.43;;;13.24;57.83
40372;BME280;28564;53.346;-6.554;2023-04-01T08:23:14;100064.33;;;13.21;57.45
40372;BME280;28564;53.346;-6.554;2023-04-01T08:25:48;100068.77;;;13.63;57.60
40372;BME280;28564;53.346;-6.554;2023-04-01T08:28:20;100069.86;;;13.25;57.50
40372;BME280;28564;53.346;-6.554;2023-04-01T08:30:54;100076.37;;;13.43;57.82
40372;BME280;28564;53.346;-6.554;2023-04-01T08:33:25;100085.03;;;13.79;57.71
40372;BME280;28564;53.346;-6.554;2023-04-01T08:35:57;100090.22;;;13.72;57.93
40372;BME280;28564;53.346;-6.554;2023-04-01T08:38:30;100097.87;;;13.89;57.24
40372;BME280;28564;53.346;-6.554;2023-04-01T08:41:00;100098.11;;;13.60;56.36
40372;BME280;28564;53.346;-6.554;2023-04-01T08:44:14;100104.10;;;13.76;56.32
40372;BME280;28564;53.346;-6.554;2023-04-01T08:46:56;100109.26;;;13.49;56.12
40372;BME280;28564;53.346;-6.554;2023-04-01T08:49:43;100113.99;;;13.75;56.31
40372;BME280;28564;53.346;-6.554;2023-04-01T08:52:23;100120.19;;;13.71;56.41
40372;BME280;28564;53.346;-6.554;2023-04-01T08:55:13;100126.80;;;13.46;56.39
40372;BME280;28564;53.346;-6.554;2023-04-01T08:57:59;100133.08;;;13.69;56.61
40372;BME280;28564;53.346;-6.554;2023-04-01T09:04:04;100144.83;;;13.76;55.14
40372;BME280;28564;53.346;-6.554;2023-04-01T09:06:44;100147.78;;;13.61;54.92
40372;BME280;28564;53.346;-6.554;2023-04-01T09:09:37;100150.16;;;13.73;55.58
40372;BME280;28564;53.346;-6.554;2023-04-01T09:12:53;100156.44;;;13.92;55.07
40372;BME280;28564;53.346;-6.554;2023-04-01T09:15:38;100170.42;;;13.84;55.83
40372;BME280;28564;53.346;-6.554;2023-04-01T09:18:39;100167.72;;;13.80;56.45
40372;BME280;28564;53.346;-6.554;2023-04-01T09:21:22;100174.49;;;13.44;56.03
40372;BME280;28564;53.346;-6.554;2023-04-01T09:25:26;100183.33;;;14.18;55.75
40372;BME280;28564;53.346;-6.554;2023-04-01T09:28:05;100192.37;;;14.01;56.17
40372;BME280;28564;53.346;-6.554;2023-04-01T09:31:01;100190.56;;;13.97;55.31
40372;BME280;28564;53.346;-6.554;2023-04-01T09:35:46;100196.81;;;13.81;55.74
40372;BME280;28564;53.346;-6.554;2023-04-01T09:38:21;100203.00;;;13.96;56.09
40372;BME280;28564;53.346;-6.554;2023-04-01T09:40:55;100210.28;;;14.10;56.33
40372;BME280;28564;53.346;-6.554;2023-04-01T09:43:43;100214.15;;;13.73;55.96
40372;BME280;28564;53.346;-6.554;2023-04-01T09:46:23;100215.69;;;13.86;56.28
40372;BME280;28564;53.346;-6.554;2023-04-01T09:51:17;100222.26;;;14.81;56.55
40372;BME280;28564;53.346;-6.554;2023-04-01T09:54:00;100227.13;;;14.31;55.50
40372;BME280;28564;53.346;-6.554;2023-04-01T09:57:23;100232.99;;;14.63;54.87
40372;BME280;28564;53.346;-6.554;2023-04-01T10:00:09;100240.11;;;14.43;55.14
40372;BME280;28564;53.346;-6.554;2023-04-01T10:03:03;100241.74;;;14.37;53.78
40372;BME280;28564;53.346;-6.554;2023-04-01T10:10:47;100243.88;;;14.73;56.03
40372;BME280;28564;53.346;-6.554;2023-04-01T10:13:35;100252.83;;;14.50;55.80
40372;BME280;28564;53.346;-6.554;2023-04-01T10:16:19;100255.22;;;15.04;53.92
40372;BME280;28564;53.346;-6.554;2023-04-01T10:21:39;100266.38;;;15.28;53.50
40372;BME280;28564;53.346;-6.554;2023-04-01T10:24:42;100273.64;;;14.65;54.41
40372;BME280;28564;53.346;-6.554;2023-04-01T10:27:28;100281.92;;;14.74;55.00
40372;BME280;28564;53.346;-6.554;2023-04-01T10:30:20;100287.95;;;14.61;55.02
40372;BME280;28564;53.346;-6.554;2023-04-01T10:34:21;100292.52;;;14.78;55.08
40372;BME280;28564;53.346;-6.554;2023-04-01T10:36:56;100303.55;;;15.01;54.81
40372;BME280;28564;53.346;-6.554;2023-04-01T10:39:34;100306.68;;;15.32;53.38
40372;BME280;28564;53.346;-6.554;2023-04-01T10:45:26;100316.71;;;15.34;54.20
40372;BME280;28564;53.346;-6.554;2023-04-01T10:48:15;100323.02;;;14.88;54.75
40372;BME280;28564;53.346;-6.554;2023-04-01T10:51:33;100327.25;;;15.32;54.55
40372;BME280;28564;53.346;-6.554;2023-04-01T10:54:18;100328.46;;;15.49;54.02
40372;BME280;28564;53.346;-6.554;2023-04-01T10:56:54;100330.26;;;15.60;53.88
40372;BME280;28564;53.346;-6.554;2023-04-01T11:00:18;100334.22;;;15.87;53.00
40372;BME280;28564;53.346;-6.554;2023-04-01T11:03:21;100335.86;;;15.62;53.09
40372;BME280;28564;53.346;-6.554;2023-04-01T11:10:39;100346.82;;;16.08;52.61
40372;BME280;28564;53.346;-6.554;2023-04-01T11:13:47;100350.39;;;15.89;52.86
40372;BME280;28564;53.346;-6.554;2023-04-01T11:16:35;100358.02;;;16.53;52.58
40372;BME280;28564;53.346;-6.554;2023-04-01T11:19:22;100357.33;;;16.70;52.15
40372;BME280;28564;53.346;-6.554;2023-04-01T11:22:15;100361.80;;;16.58;51.28
40372;BME280;28564;53.346;-6.554;2023-04-01T11:25:02;100365.75;;;16.47;50.96
40372;BME280;28564;53.346;-6.554;2023-04-01T11:28:07;100374.11;;;16.80;51.56
40372;BME280;28564;53.346;-6.554;2023-04-01T11:30:57;100377.60;;;17.26;50.69
40372;BME280;28564;53.346;-6.554;2023-04-01T11:33:30;100377.10;;;17.26;49.62
40372;BME280;28564;53.346;-6.554;2023-04-01T11:36:11;100375.51;;;17.17;48.63
40372;BME280;28564;53.346;-6.554;2023-04-01T11:38:53;100385.08;;;17.19;49.17
40372;BME280;28564;53.346;-6.554;2023-04-01T11:41:32;100388.71;;;17.35;48.02
40372;BME280;28564;53.346;-6.554;2023-04-01T11:44:16;100393.29;;;17.11;47.86
40372;BME280;28564;53.346;-6.554;2023-04-01T11:46:54;100401.51;;;17.40;48.75
40372;BME280;28564;53.346;-6.554;2023-04-01T11:49:37;100404.16;;;17.19;48.42
40372;BME280;28564;53.346;-6.554;2023-04-01T11:52:21;100412.00;;;17.09;48.52
40372;BME280;28564;53.346;-6.554;2023-04-01T11:55:06;100412.33;;;17.18;48.17
40372;BME280;28564;53.346;-6.554;2023-04-01T11:57:48;100418.08;;;16.98;48.51
40372;BME280;28564;53.346;-6.554;2023-04-01T12:00:44;100419.51;;;17.25;48.49
40372;BME280;28564;53.346;-6.554;2023-04-01T12:03:32;100424.20;;;16.88;48.54
40372;BME280;28564;53.346;-6.554;2023-04-01T12:06:09;100431.14;;;16.64;49.09
40372;BME280;28564;53.346;-6.554;2023-04-01T12:08:45;100435.81;;;16.61;49.00
40372;BME280;28564;53.346;-6.554;2023-04-01T12:11:19;100441.67;;;16.27;49.32
40372;BME280;28564;53.346;-6.554;2023-04-01T12:13:53;100446.45;;;16.12;49.98
40372;BME280;28564;53.346;-6.554;2023-04-01T12:16:33;100454.03;;;16.06;50.80
40372;BME280;28564;53.346;-6.554;2023-04-01T12:19:09;100463.21;;;15.67;51.40
40372;BME280;28564;53.346;-6.554;2023-04-01T12:21:43;100466.14;;;15.89;51.85
40372;BME280;28564;53.346;-6.554;2023-04-01T12:24:41;100465.90;;;16.02;52.33
40372;BME280;28564;53.346;-6.554;2023-04-01T12:27:24;100470.04;;;16.18;52.19
40372;BME280;28564;53.346;-6.554;2023-04-01T12:30:33;100469.68;;;16.29;51.96
40372;BME280;28564;53.346;-6.554;2023-04-01T12:33:16;100480.60;;;16.12;52.38
40372;BME280;28564;53.346;-6.554;2023-04-01T12:35:55;100484.61;;;15.72;51.88
40372;BME280;28564;53.346;-6.554;2023-04-01T12:38:33;100490.92;;;16.08;50.74
40372;BME280;28564;53.346;-6.554;2023-04-01T12:41:08;100496.39;;;15.83;51.87
40372;BME280;28564;53.346;-6.554;2023-04-01T12:45:57;100504.40;;;17.24;51.93
40372;BME280;28564;53.346;-6.554;2023-04-01T12:48:45;100511.13;;;16.56;51.36
40372;BME280;28564;53.346;-6.554;2023-04-01T12:51:35;100514.69;;;16.52;50.81
40372;BME280;28564;53.346;-6.554;2023-04-01T12:56:27;100518.87;;;16.76;51.15
40372;BME280;28564;53.346;-6.554;2023-04-01T12:59:52;100523.16;;;16.63;50.45
40372;BME280;28564;53.346;-6.554;2023-04-01T13:02:34;100528.48;;;16.15;50.75
40372;BME280;28564;53.346;-6.554;2023-04-01T13:05:57;100530.46;;;16.57;51.33
40372;BME280;28564;53.346;-6.554;2023-04-01T13:08:39;100538.26;;;16.45;52.08
40372;BME280;28564;53.346;-6.554;2023-04-01T13:11:16;100545.42;;;16.66;50.95
40372;BME280;28564;53.346;-6.554;2023-04-01T13:14:03;100550.63;;;16.79;51.71
40372;BME280;28564;53.346;-6.554;2023-04-01T13:16:40;100556.92;;;16.75;50.16
40372;BME280;28564;53.346;-6.554;2023-04-01T13:19:15;100557.69;;;16.84;49.76
40372;BME280;28564;53.346;-6.554;2023-04-01T13:21:51;100559.85;;;16.59;48.56
40372;BME280;28564;53.346;-6.554;2023-04-01T13:24:31;100564.00;;;16.44;49.55
40372;BME280;28564;53.346;-6.554;2023-04-01T13:27:07;100570.80;;;16.66;49.16
40372;BME280;28564;53.346;-6.554;2023-04-01T13:29:38;100575.42;;;16.67;49.17
40372;BME280;28564;53.346;-6.554;2023-04-01T13:32:18;100571.78;;;16.63;49.03
40372;BME280;28564;53.346;-6.554;2023-04-01T13:34:59;100575.94;;;16.78;48.27
40372;BME280;28564;53.346;-6.554;2023-04-01T13:37:44;100579.84;;;16.34;48.48
40372;BME280;28564;53.346;-6.554;2023-04-01T13:40:33;100590.02;;;16.24;49.15
40372;BME280;28564;53.346;-6.554;2023-04-01T13:43:08;100590.55;;;16.37;49.40
40372;BME280;28564;53.346;-6.554;2023-04-01T13:45:53;100597.80;;;16.21;50.24
40372;BME280;28564;53.346;-6.554;2023-04-01T13:48:39;100604.34;;;16.43;50.00
40372;BME280;28564;53.346;-6.554;2023-04-01T13:51:22;100609.50;;;16.46;50.27
40372;BME280;28564;53.346;-6.554;2023-04-01T13:54:24;100608.46;;;16.55;49.08
40372;BME280;28564;53.346;-6.554;2023-04-01T13:57:14;100619.43;;;17.05;48.07
40372;BME280;28564;53.346;-6.554;2023-04-01T14:00:04;100633.51;;;16.97;48.35
40372;BME280;28564;53.346;-6.554;2023-04-01T14:02:50;100634.07;;;17.18;47.62